Time;durP1;ratioP1;P1;durP2;ratioP2;P2;SDS_P1;SDS_P2;PMS_P1;PMS_P2;Temp;Humidity;BMP_temperature;BMP_pressure;BME280_temperature;BME280_humidity;BME280_pressure;Samples;Min_cycle;Max_cycle;Signal;HPM_P1;HPM_P2
2023/06/30 00:00:56;;;;;;;2.33;2.23;;;;;;;-145.94;61.09;76249.81;5115221;28;20249;-66
2023/06/30 00:03:22;;;;;;;3.87;2.07;;;;;;;-145.94;61.21;76239.59;5115220;28;20189;-66
2023/06/30 00:05:49;;;;;;;1.97;1.87;;;;;;;-145.94;61.07;76247.75;5115454;28;20189;-66
2023/06/30 00:08:15;;;;;;;2.70;2.60;;;;;;;-145.94;61.57;76241.66;5115198;28;20230;-66
2023/06/30 00:10:42;;;;;;;2.63;2.43;;;;;;;-145.94;61.27;76233.50;5115320;28;20205;-67
2023/06/30 00:13:09;;;;;;;2.30;2.13;;;;;;;-145.94;61.39;76233.50;5115675;28;20238;-67
2023/06/30 00:15:35;;;;;;;1.70;1.70;;;;;;;-145.94;61.31;76241.66;5115046;28;20219;-67
2023/06/30 00:18:02;;;;;;;2.10;2.00;;;;;;;-145.94;61.87;76239.59;5114946;28;20185;-67
2023/06/30 00:20:28;;;;;;;4.53;2.20;;;;;;;-145.94;62.37;76243.69;5114828;28;20231;-67
2023/06/30 00:22:55;;;;;;;3.67;2.47;;;;;;;-145.94;62.25;76253.88;5114902;28;20238;-67
2023/06/30 00:25:21;;;;;;;1.90;1.90;;;;;;;-145.94;62.31;76245.72;5114840;28;20596;-67
2023/06/30 00:27:47;;;;;;;2.33;2.30;;;;;;;-145.94;63.09;76253.88;5114760;28;20204;-67
2023/06/30 00:30:14;;;;;;;2.53;1.93;;;;;;;-145.94;63.04;76253.88;5096286;28;20246;-68
2023/06/30 00:32:41;;;;;;;3.07;2.53;;;;;;;-145.94;63.31;76255.91;5114942;28;20181;-68
2023/06/30 00:35:09;;;;;;;2.50;2.37;;;;;;;-145.94;63.85;76264.06;5096377;28;20189;-68
2023/06/30 00:37:35;;;;;;;3.10;3.00;;;;;;;-145.94;64.93;76270.19;5096276;28;20651;-68
2023/06/30 00:40:02;;;;;;;2.43;2.43;;;;;;;-145.94;65.50;76278.34;5114509;28;20209;-68
2023/06/30 00:42:28;;;;;;;3.53;3.43;;;;;;;-145.94;65.80;76278.34;5096298;28;20208;-68
2023/06/30 00:44:55;;;;;;;3.83;3.57;;;;;;;-145.94;66.71;76292.63;5096267;28;20192;-68
2023/06/30 00:47:21;;;;;;;2.80;2.70;;;;;;;-145.94;67.42;76298.72;5114417;28;20189;-68
2023/06/30 00:49:51;;;;;;;3.60;3.47;;;;;;;-145.94;67.51;76306.88;5096009;28;20279;-68
2023/06/30 00:52:18;;;;;;;3.90;3.73;;;;;;;-145.94;67.46;76308.94;5114307;28;20205;-68
2023/06/30 00:54:45;;;;;;;3.93;3.60;;;;;;;-145.94;67.96;76304.84;5114336;28;20189;-68
2023/06/30 00:57:14;;;;;;;4.50;4.17;;;;;;;-145.94;68.26;76304.84;5096022;28;20224;-68
2023/06/30 00:59:40;;;;;;;5.40;4.37;;;;;;;-145.94;68.93;76308.94;5095929;28;20185;-69
2023/06/30 01:02:20;;;;;;;4.00;3.90;;;;;;;-145.94;68.91;76325.25;5095978;28;20196;-69
2023/06/30 01:04:58;;;;;;;4.80;4.13;;;;;;;-145.94;69.71;76337.47;5114411;28;20170;-69
2023/06/30 01:07:31;;;;;;;4.77;4.60;;;;;;;-145.94;70.03;76345.63;5114406;28;20174;-69
2023/06/30 01:10:10;;;;;;;4.07;3.87;;;;;;;-145.94;70.09;76343.59;5114241;28;20205;-71
2023/06/30 01:12:37;;;;;;;4.57;4.33;;;;;;;-145.94;70.13;76345.63;5114274;28;20173;-71
2023/06/30 01:15:05;;;;;;;6.73;4.00;;;;;;;-145.94;70.41;76343.59;5113916;28;20170;-71
2023/06/30 01:17:33;;;;;;;4.73;4.57;;;;;;;-145.94;70.96;76337.47;5113955;28;20185;-71
2023/06/30 01:20:04;;;;;;;4.80;4.40;;;;;;;-145.94;70.22;76333.41;5114070;28;20213;-71
2023/06/30 01:22:54;;;;;;;4.13;4.07;;;;;;;-145.94;70.92;76343.59;5095603;28;20224;-70
2023/06/30 01:25:25;;;;;;;5.27;4.80;;;;;;;-145.94;70.70;76341.56;5113910;28;20173;-70
2023/06/30 01:27:53;;;;;;;5.13;4.93;;;;;;;-145.94;71.05;76345.63;5114097;28;20199;-70
2023/06/30 01:30:21;;;;;;;5.03;4.63;;;;;;;-145.94;70.83;76353.78;5113660;28;20224;-71
2023/06/30 01:32:54;;;;;;;8.03;4.70;;;;;;;-145.94;71.38;76363.97;5095504;28;20607;-71
2023/06/30 01:35:22;;;;;;;4.53;4.20;;;;;;;-145.94;71.07;76366.03;5114300;28;20188;-71
2023/06/30 01:37:48;;;;;;;7.00;4.43;;;;;;;-145.94;71.11;76368.06;5113745;28;20177;-71
2023/06/30 01:40:17;;;;;;;5.50;4.67;;;;;;;-145.94;71.73;76374.19;5095475;28;20205;-71
2023/06/30 01:42:44;;;;;;;7.07;4.93;;;;;;;-145.94;71.75;76368.06;5113659;28;20200;-71
2023/06/30 01:45:14;;;;;;;4.63;4.33;;;;;;;-145.94;71.73;76384.38;5095414;28;20184;-71
2023/06/30 01:47:42;;;;;;;5.80;5.27;;;;;;;-145.94;72.09;76388.44;5095339;28;20193;-71
2023/06/30 01:50:09;;;;;;;5.27;4.90;;;;;;;-145.94;71.98;76392.53;5114052;28;20540;-71
2023/06/30 01:52:36;;;;;;;5.00;4.70;;;;;;;-145.94;72.33;76390.50;5113509;28;20212;-71
2023/06/30 01:55:03;;;;;;;6.73;4.37;;;;;;;-145.94;72.27;76392.53;5113547;28;20181;-71
2023/06/30 01:57:30;;;;;;;5.40;4.93;;;;;;;-145.94;72.76;76392.53;5095284;28;20193;-72
2023/06/30 01:59:56;;;;;;;5.47;5.07;;;;;;;-145.94;72.21;76390.50;5113715;28;20201;-72
2023/06/30 02:02:23;;;;;;;4.77;4.40;;;;;;;-145.94;72.83;76396.59;5095303;28;20209;-71
2023/06/30 02:04:50;;;;;;;6.43;4.70;;;;;;;-145.94;72.79;76386.41;5113468;28;20242;-71
2023/06/30 02:07:16;;;;;;;4.93;4.53;;;;;;;-145.94;72.44;76382.34;5113459;28;20565;-71
2023/06/30 02:09:43;;;;;;;5.50;4.97;;;;;;;-145.94;72.59;76382.34;5113313;28;20201;-71
2023/06/30 02:12:14;;;;;;;6.20;5.67;;;;;;;-145.94;72.78;76388.44;5095369;28;20236;-71
2023/06/30 02:14:41;;;;;;;5.70;5.40;;;;;;;-145.94;72.71;76382.34;5113628;28;20178;-71
2023/06/30 02:17:10;;;;;;;6.30;5.77;;;;;;;-145.94;72.75;76382.34;5113333;28;20196;-71
2023/06/30 02:19:36;;;;;;;5.60;5.50;;;;;;;-145.94;72.80;76372.13;5095186;28;20189;-71
2023/06/30 02:22:03;;;;;;;6.10;5.60;;;;;;;-145.94;72.45;76384.38;5095011;28;20706;-71
2023/06/30 02:24:29;;;;;;;6.87;6.10;;;;;;;-145.94;72.43;76388.44;5095054;28;20193;-71
2023/06/30 02:26:56;;;;;;;5.90;5.60;;;;;;;-145.94;72.50;76386.41;5095550;28;20196;-70
2023/06/30 02:29:22;;;;;;;6.70;6.20;;;;;;;-145.94;72.51;76388.44;5117067;28;20196;-70
2023/06/30 02:31:49;;;;;;;5.83;5.37;;;;;;;-145.94;72.42;76388.44;5098716;28;20589;-70
2023/06/30 02:34:15;;;;;;;6.60;6.00;;;;;;;-145.94;72.58;76396.59;5098753;28;20201;-70
2023/06/30 02:36:42;;;;;;;6.87;5.43;;;;;;;-145.94;72.52;76394.56;5117244;28;20635;-70
2023/06/30 02:39:08;;;;;;;8.73;5.37;;;;;;;-145.94;72.66;76398.66;5098680;28;20246;-70
2023/06/30 02:41:36;;;;;;;5.90;5.63;;;;;;;-145.94;72.77;76402.72;5098475;28;20213;-70
2023/06/30 02:44:02;;;;;;;14.50;5.63;;;;;;;-145.94;72.32;76406.81;5098653;28;20196;-70
2023/06/30 02:46:29;;;;;;;5.43;5.13;;;;;;;-145.94;72.75;76414.94;5098539;28;20189;-70
2023/06/30 02:48:55;;;;;;;7.13;6.40;;;;;;;-145.94;72.49;76419.03;5116764;28;20594;-70
2023/06/30 02:51:22;;;;;;;6.60;6.13;;;;;;;-145.94;72.84;76421.06;5116722;28;20571;-70
2023/06/30 02:53:48;;;;;;;6.90;6.13;;;;;;;-145.94;72.52;76421.06;5098346;28;20191;-70
2023/06/30 02:56:15;;;;;;;5.37;4.93;;;;;;;-145.94;72.54;76429.22;5098334;28;20189;-70
2023/06/30 02:58:42;;;;;;;5.23;4.87;;;;;;;-145.94;72.41;76433.31;5098310;28;20193;-70
2023/06/30 03:01:09;;;;;;;6.43;5.87;;;;;;;-145.94;72.62;76429.22;5098421;28;20225;-70
2023/06/30 03:03:38;;;;;;;5.47;5.17;;;;;;;-145.94;72.26;76433.31;5098141;28;20649;-70
2023/06/30 03:06:06;;;;;;;8.40;6.13;;;;;;;-145.94;72.04;76435.34;5098400;28;20284;-70
2023/06/30 03:08:36;;;;;;;6.27;5.70;;;;;;;-145.94;72.14;76439.41;5098905;28;20200;-70
2023/06/30 03:11:02;;;;;;;7.77;5.67;;;;;;;-145.94;72.08;76437.38;5097803;28;20576;-71
2023/06/30 03:13:29;;;;;;;7.37;4.70;;;;;;;-145.94;72.02;76443.50;5098007;28;20193;-70
2023/06/30 03:15:56;;;;;;;6.63;5.63;;;;;;;-145.94;72.23;76449.63;5097924;28;20239;-70
2023/06/30 03:18:23;;;;;;;8.63;5.30;;;;;;;-145.94;72.11;76449.63;5098483;28;20193;-70
2023/06/30 03:20:50;;;;;;;10.03;5.50;;;;;;;-145.94;72.05;76449.63;5116585;28;20212;-71
2023/06/30 03:23:18;;;;;;;4.50;4.30;;;;;;;-145.94;72.02;76443.50;5116315;28;20571;-71
2023/06/30 03:25:45;;;;;;;7.10;5.30;;;;;;;-145.94;71.53;76439.41;5098649;28;20217;-71
2023/06/30 03:28:12;;;;;;;4.63;4.57;;;;;;;-145.94;72.14;76433.31;5081083;28;20204;-71
2023/06/30 03:30:39;;;;;;;6.47;4.50;;;;;;;-145.94;72.00;76435.34;5097812;28;20581;-70
2023/06/30 03:33:05;;;;;;;17.50;5.47;;;;;;;-145.94;72.04;76435.34;5097794;28;20778;-70
2023/06/30 03:35:32;;;;;;;6.23;5.97;;;;;;;-145.94;71.33;76449.63;5097576;28;20189;-71
2023/06/30 03:37:59;;;;;;;9.00;5.50;;;;;;;-145.94;70.94;76453.69;5097227;28;20200;-71
2023/06/30 03:40:25;;;;;;;5.67;5.27;;;;;;;-145.94;71.34;76445.53;5097414;28;20242;-71
2023/06/30 03:42:52;;;;;;;6.13;5.03;;;;;;;-145.94;71.05;76447.56;5097424;28;20195;-71
2023/06/30 03:45:18;;;;;;;12.83;4.77;;;;;;;-145.94;70.74;76451.66;5115627;28;20185;-70
2023/06/30 03:47:46;;;;;;;5.20;4.80;;;;;;;-145.94;70.37;76445.53;5115583;28;20189;-70
2023/06/30 03:50:13;;;;;;;6.07;4.23;;;;;;;-145.94;70.51;76459.81;5097476;28;20220;-71
2023/06/30 03:52:39;;;;;;;7.77;4.53;;;;;;;-145.94;70.51;76467.97;5115440;28;20201;-71
2023/06/30 03:55:06;;;;;;;4.73;4.43;;;;;;;-145.94;70.52;76463.88;5115479;28;20186;-71
2023/06/30 03:57:32;;;;;;;6.13;4.53;;;;;;;-145.94;70.15;76455.72;5097365;28;20177;-71
2023/06/30 03:59:59;;;;;;;4.60;4.30;;;;;;;-145.94;70.18;76470.00;5097077;28;20185;-71
2023/06/30 04:02:25;;;;;;;4.13;3.97;;;;;;;-145.94;70.19;76470.00;5097072;28;20185;-71
2023/06/30 04:04:52;;;;;;;6.97;4.47;;;;;;;-145.94;69.77;76478.16;5115254;28;20226;-71
2023/06/30 04:07:19;;;;;;;5.20;4.83;;;;;;;-145.94;69.77;76480.19;5115514;28;20178;-71
2023/06/30 04:09:46;;;;;;;5.63;3.90;;;;;;;-145.94;69.56;76482.25;5115073;28;20189;-71
2023/06/30 04:12:12;;;;;;;4.87;4.57;;;;;;;-145.94;69.72;76476.13;5115342;28;20234;-71
2023/06/30 04:14:39;;;;;;;6.30;4.40;;;;;;;-145.94;69.93;76476.13;5115593;28;20197;-71
2023/06/30 04:17:05;;;;;;;11.63;4.60;;;;;;;-145.94;70.07;76472.03;5115022;28;20201;-71
2023/06/30 04:19:32;;;;;;;8.30;4.60;;;;;;;-145.94;70.10;76467.97;5115567;28;20644;-71
2023/06/30 04:21:58;;;;;;;6.67;4.60;;;;;;;-145.94;70.24;76465.94;5115615;28;20234;-70
2023/06/30 04:24:26;;;;;;;7.57;4.63;;;;;;;-145.94;70.12;76465.94;5115174;28;20184;-70
2023/06/30 04:26:53;;;;;;;6.87;4.00;;;;;;;-145.94;70.27;76472.03;5114833;28;20272;-70
2023/06/30 04:29:19;;;;;;;5.27;4.93;;;;;;;-145.94;69.94;76478.16;5114951;28;20189;-70
2023/06/30 04:31:46;;;;;;;4.63;4.40;;;;;;;-145.94;69.60;76490.41;5114721;28;20209;-70
2023/06/30 04:34:12;;;;;;;4.37;4.00;;;;;;;-145.94;69.24;76484.28;5114677;28;20184;-70
2023/06/30 04:36:38;;;;;;;7.40;4.57;;;;;;;-145.94;69.48;76494.47;5114905;28;20193;-70
2023/06/30 04:39:05;;;;;;;4.73;4.43;;;;;;;-145.94;68.81;76492.44;5114609;28;20189;-70
2023/06/30 04:41:32;;;;;;;4.30;4.00;;;;;;;-145.94;69.11;76502.63;5114516;28;20193;-70
2023/06/30 04:43:59;;;;;;;4.40;4.10;;;;;;;-145.94;69.00;76504.66;5114738;28;20185;-70
2023/06/30 04:46:27;;;;;;;9.13;4.63;;;;;;;-145.94;68.50;76508.75;5114980;28;20193;-69
2023/06/30 04:48:55;;;;;;;7.13;3.43;;;;;;;-145.94;68.32;76516.91;5114384;28;20189;-69
2023/06/30 04:51:22;;;;;;;8.57;4.17;;;;;;;-145.94;68.51;76514.88;5113633;28;20212;-69
2023/06/30 04:53:48;;;;;;;3.93;3.63;;;;;;;-145.94;68.52;76514.88;5115161;28;20181;-69
2023/06/30 04:56:14;;;;;;;4.53;3.80;;;;;;;-145.94;68.17;76520.97;5114669;28;20193;-69
2023/06/30 04:58:43;;;;;;;3.40;3.07;;;;;;;-145.94;68.17;76518.94;5114520;28;20518;-69
2023/06/30 05:01:10;;;;;;;4.53;3.90;;;;;;;-145.94;68.26;76523.03;5114226;28;20227;-69
2023/06/30 05:03:36;;;;;;;12.57;4.20;;;;;;;-145.94;68.49;76525.06;5114421;28;20584;-70
2023/06/30 05:06:03;;;;;;;10.90;3.67;;;;;;;-145.94;68.15;76523.03;5114360;28;20189;-70
2023/06/30 05:08:30;;;;;;;3.57;3.30;;;;;;;-145.94;68.22;76527.09;5114629;28;20208;-70
2023/06/30 05:10:56;;;;;;;6.53;3.43;;;;;;;-145.94;68.24;76525.06;5113991;28;20209;-70
2023/06/30 05:13:25;;;;;;;5.97;3.43;;;;;;;-145.94;67.84;76516.91;5114241;28;20209;-70
2023/06/30 05:15:52;;;;;;;4.23;3.77;;;;;;;-145.94;67.70;76506.72;5114564;28;20185;-70
2023/06/30 05:18:18;;;;;;;3.63;3.43;;;;;;;-145.94;67.10;76514.88;5114744;28;20200;-70
2023/06/30 05:20:45;;;;;;;13.80;3.70;;;;;;;-145.94;67.30;76512.81;5114096;28;20720;-70
2023/06/30 05:23:12;;;;;;;3.57;3.27;;;;;;;-145.94;66.66;76508.75;5114179;28;20173;-70
2023/06/30 05:25:38;;;;;;;5.33;3.10;;;;;;;-145.94;66.64;76510.78;5114164;28;20192;-70
2023/06/30 05:28:04;;;;;;;13.10;3.10;;;;;;;-145.94;65.58;76514.88;5114410;28;20194;-70
2023/06/30 05:30:31;;;;;;;3.90;3.70;;;;;;;-145.94;65.44;76512.81;5113839;28;20212;-70
2023/06/30 05:32:57;;;;;;;3.63;3.40;;;;;;;-145.94;65.76;76510.78;5113692;28;20213;-70
2023/06/30 05:35:24;;;;;;;5.43;2.40;;;;;;;-145.94;65.80;76512.81;5113721;28;20194;-69
2023/06/30 05:37:50;;;;;;;11.63;3.57;;;;;;;-145.94;66.28;76500.59;5113681;28;20659;-69
2023/06/30 05:40:17;;;;;;;4.90;2.83;;;;;;;-145.94;66.34;76496.50;5114048;28;20691;-69
2023/06/30 05:42:43;;;;;;;11.80;4.27;;;;;;;-145.94;64.69;76490.41;5095441;28;20185;-69
2023/06/30 05:45:10;;;;;;;3.80;3.50;;;;;;;-145.94;65.00;76478.16;5113660;28;20651;-69
2023/06/30 05:47:36;;;;;;;4.13;3.70;;;;;;;-145.94;65.81;76470.00;5113630;28;20208;-69
2023/06/30 05:50:03;;;;;;;7.90;3.50;;;;;;;-145.94;65.90;76467.97;5113545;28;20203;-70
2023/06/30 05:52:30;;;;;;;12.33;3.10;;;;;;;-145.94;65.34;76472.03;5113514;28;20197;-69
2023/06/30 05:54:56;;;;;;;7.10;3.83;;;;;;;-145.94;64.82;76488.34;5113523;28;20200;-69
2023/06/30 05:57:23;;;;;;;4.13;3.83;;;;;;;-145.94;63.79;76500.59;5113785;28;20717;-69
2023/06/30 05:59:49;;;;;;;4.40;3.73;;;;;;;-145.94;63.91;76496.50;5113494;28;20189;-70
2023/06/30 06:02:16;;;;;;;10.30;3.47;;;;;;;-145.94;64.52;76502.63;5098257;28;20181;-70
2023/06/30 06:04:42;;;;;;;3.77;2.80;;;;;;;-145.94;64.60;76508.75;5117624;28;20616;-70
2023/06/30 06:07:09;;;;;;;3.80;3.70;;;;;;;-145.94;64.62;76516.91;5117591;28;20264;-70
2023/06/30 06:09:36;;;;;;;7.23;3.67;;;;;;;-145.94;64.31;76514.88;5118045;28;20642;-70
2023/06/30 06:12:02;;;;;;;6.50;3.23;;;;;;;-145.94;64.38;76516.91;5117341;28;20205;-69
2023/06/30 06:14:29;;;;;;;10.33;3.60;;;;;;;-145.94;64.03;76529.13;5117430;28;20178;-69
2023/06/30 06:16:55;;;;;;;6.60;3.07;;;;;;;-145.94;63.95;76525.06;5117398;28;20192;-69
2023/06/30 06:19:22;;;;;;;2.93;2.73;;;;;;;-145.94;63.53;76525.06;5117911;28;20181;-69
2023/06/30 06:21:48;;;;;;;5.50;3.30;;;;;;;-145.94;62.98;76525.06;5117750;28;20573;-69
2023/06/30 06:24:18;;;;;;;7.93;2.57;;;;;;;-145.94;63.57;76516.91;5117263;28;20201;-69
2023/06/30 06:26:44;;;;;;;4.97;3.13;;;;;;;-145.94;63.97;76510.78;5117171;28;20193;-69
2023/06/30 06:29:14;;;;;;;6.33;2.80;;;;;;;-145.94;62.87;76516.91;5117309;28;20589;-69
2023/06/30 06:31:43;;;;;;;6.63;2.70;;;;;;;-145.94;63.11;76510.78;5117007;28;20262;-69
2023/06/30 06:34:09;;;;;;;6.77;2.70;;;;;;;-145.94;62.94;76510.78;5117556;28;20238;-69
2023/06/30 06:36:35;;;;;;;7.80;3.10;;;;;;;-145.94;63.47;76508.75;5117579;28;20186;-68
2023/06/30 06:39:02;;;;;;;9.27;3.17;;;;;;;-145.94;63.20;76502.63;5116970;28;20189;-68
2023/06/30 06:41:29;;;;;;;3.03;2.83;;;;;;;-145.94;62.83;76498.56;5116834;28;20212;-69
2023/06/30 06:43:55;;;;;;;9.00;2.33;;;;;;;-145.94;62.60;76492.44;5117158;28;20178;-69
2023/06/30 06:46:22;;;;;;;5.90;2.30;;;;;;;-145.94;62.13;76492.44;5117077;28;20716;-69
2023/06/30 06:48:48;;;;;;;3.20;2.30;;;;;;;-145.94;61.73;76490.41;5117029;28;20181;-69
2023/06/30 06:51:15;;;;;;;6.23;3.07;;;;;;;-145.94;61.93;76476.13;5116820;28;20254;-69
2023/06/30 06:53:41;;;;;;;9.60;2.50;;;;;;;-145.94;61.69;76465.94;5117195;28;20197;-69
2023/06/30 06:56:08;;;;;;;8.37;4.17;;;;;;;-145.94;61.91;76459.81;5116643;28;20186;-69
2023/06/30 06:58:38;;;;;;;5.70;2.83;;;;;;;-145.94;61.26;76445.53;5116569;28;20542;-69
2023/06/30 07:01:05;;;;;;;2.73;2.23;;;;;;;-145.94;60.87;76445.53;5116753;28;20205;-69
2023/06/30 07:03:32;;;;;;;8.23;3.00;;;;;;;-145.94;60.70;76435.34;5116433;28;20173;-69
2023/06/30 07:05:58;;;;;;;2.87;2.70;;;;;;;-145.94;60.20;76417.00;5116424;28;20655;-68
2023/06/30 07:08:26;;;;;;;4.27;2.27;;;;;;;-145.94;59.71;76425.16;5116891;28;20611;-69
2023/06/30 07:10:52;;;;;;;6.63;2.80;;;;;;;-145.94;60.23;76412.91;5116519;28;20209;-69
2023/06/30 07:13:20;;;;;;;7.40;3.23;;;;;;;-145.94;59.62;76419.03;5115503;28;20205;-68
2023/06/30 07:15:48;;;;;;;2.53;2.43;;;;;;;-145.94;60.45;76402.72;5116576;28;20743;-69
2023/06/30 07:18:18;;;;;;;2.73;2.50;;;;;;;-145.94;59.57;76427.19;5116196;28;20189;-69
2023/06/30 07:20:50;;;;;;;2.90;2.80;;;;;;;-145.94;58.55;76423.13;5116105;28;20208;-69
2023/06/30 07:23:17;;;;;;;13.23;2.33;;;;;;;-145.94;59.05;76421.06;5116106;28;20186;-68
2023/06/30 07:25:44;;;;;;;2.87;2.53;;;;;;;-145.94;58.19;76427.19;5116025;28;20212;-68
2023/06/30 07:28:12;;;;;;;2.30;2.20;;;;;;;-145.94;58.57;76433.31;5115997;28;20196;-68
2023/06/30 07:30:40;;;;;;;2.30;2.30;;;;;;;-145.94;58.44;76417.00;5115810;28;20300;-69
2023/06/30 07:33:10;;;;;;;4.10;2.30;;;;;;;-145.94;58.44;76404.75;5116460;28;20193;-68
2023/06/30 07:35:37;;;;;;;3.23;2.33;;;;;;;-145.94;58.47;76404.75;5115842;28;20215;-68
2023/06/30 07:38:04;;;;;;;5.90;2.40;;;;;;;-145.94;56.96;76396.59;5116335;28;20203;-69
2023/06/30 07:40:30;;;;;;;2.93;2.27;;;;;;;-145.94;56.70;76398.66;5115676;28;20209;-69
2023/06/30 07:43:16;;;;;;;2.40;2.40;;;;;;;-145.94;56.22;76390.50;5115969;28;20252;-68
2023/06/30 07:45:43;;;;;;;1.83;1.83;;;;;;;-145.94;55.23;76390.50;5115669;28;20196;-68
2023/06/30 07:48:10;;;;;;;4.57;2.30;;;;;;;-145.94;54.88;76374.19;5115638;28;20224;-68
2023/06/30 07:50:37;;;;;;;2.83;2.20;;;;;;;-145.94;54.58;76370.09;5115548;28;20212;-68
2023/06/30 07:53:08;;;;;;;1.73;1.63;;;;;;;-145.94;52.70;76376.22;5115480;28;20212;-68
2023/06/30 07:55:34;;;;;;;2.03;1.93;;;;;;;-145.94;55.96;76366.03;5115812;28;20176;-68
2023/06/30 07:58:01;;;;;;;2.20;2.10;;;;;;;-145.94;55.15;76355.81;5115728;28;20585;-68
2023/06/30 08:00:29;;;;;;;13.30;2.40;;;;;;;-145.94;54.87;76347.66;5115612;28;20201;-69
2023/06/30 08:02:55;;;;;;;5.10;1.67;;;;;;;-145.94;51.24;76349.72;5115291;28;20547;-69
2023/06/30 08:05:22;;;;;;;2.00;1.70;;;;;;;-145.94;53.46;76349.72;5115321;28;20189;-68
2023/06/30 08:07:48;;;;;;;5.70;1.93;;;;;;;-145.94;52.78;76347.66;5115746;28;20185;-68
2023/06/30 08:10:18;;;;;;;1.70;1.60;;;;;;;-145.94;53.28;76339.50;5115369;28;20262;-69
2023/06/30 08:12:44;;;;;;;5.03;2.57;;;;;;;-145.94;51.57;76323.19;5115320;28;20205;-69
2023/06/30 08:15:11;;;;;;;2.07;1.90;;;;;;;-145.94;53.06;76317.09;5115674;28;20193;-69
2023/06/30 08:17:37;;;;;;;3.20;1.63;;;;;;;-145.94;51.84;76323.19;5115012;28;20177;-69
2023/06/30 08:20:23;;;;;;;2.00;1.83;;;;;;;-145.94;52.74;76317.09;5115297;28;20258;-69
2023/06/30 08:22:50;;;;;;;3.37;1.70;;;;;;;-145.94;52.04;76321.16;5114975;28;20651;-69
2023/06/30 08:25:21;;;;;;;2.03;1.80;;;;;;;-145.94;52.79;76325.25;5113886;28;20177;-69
2023/06/30 08:27:48;;;;;;;1.83;1.83;;;;;;;-145.94;51.89;76321.16;5114852;28;20173;-69
2023/06/30 08:30:15;;;;;;;8.43;1.93;;;;;;;-145.94;52.32;76327.28;5114850;28;20220;-69
2023/06/30 08:32:42;;;;;;;1.60;1.50;;;;;;;-145.94;51.53;76337.47;5114709;28;20204;-69
2023/06/30 08:35:09;;;;;;;5.27;1.67;;;;;;;-145.94;51.99;76313.00;5114716;28;20189;-68
2023/06/30 08:37:37;;;;;;;1.73;1.73;;;;;;;-145.94;52.40;76317.09;5114661;28;20270;-68
2023/06/30 08:40:05;;;;;;;1.80;1.70;;;;;;;-145.94;52.06;76313.00;5114486;28;20212;-69
2023/06/30 08:42:36;;;;;;;1.70;1.60;;;;;;;-145.94;52.49;76292.63;5114581;28;20699;-69
2023/06/30 08:45:03;;;;;;;1.60;1.60;;;;;;;-145.94;52.98;76282.44;5114572;28;20169;-69
2023/06/30 08:47:32;;;;;;;2.17;1.97;;;;;;;-145.94;51.68;76268.16;5114756;28;20208;-68
2023/06/30 08:49:59;;;;;;;1.83;1.77;;;;;;;-145.94;51.00;76268.16;5114355;28;20188;-69
2023/06/30 08:52:26;;;;;;;3.43;1.67;;;;;;;-145.94;51.79;76251.84;5114293;28;20181;-68
2023/06/30 08:54:53;;;;;;;1.47;1.47;;;;;;;-145.94;51.81;76245.72;5114392;28;20189;-68
2023/06/30 08:57:20;;;;;;;3.50;1.77;;;;;;;-145.94;50.67;76241.66;5114310;28;20184;-68
2023/06/30 08:59:47;;;;;;;2.30;1.80;;;;;;;-145.94;50.20;76249.81;5114472;28;20185;-69
2023/06/30 09:02:13;;;;;;;1.70;1.70;;;;;;;-145.94;50.48;76264.06;5114187;28;20185;-68
2023/06/30 09:04:41;;;;;;;2.00;1.90;;;;;;;-145.94;49.56;76274.28;5114224;28;20177;-68
2023/06/30 09:07:09;;;;;;;2.20;1.63;;;;;;;-145.94;51.64;76260.00;5114106;28;20264;-68
2023/06/30 09:09:44;;;;;;;1.60;1.60;;;;;;;-145.94;50.24;76243.69;5114085;28;20216;-69
2023/06/30 09:12:10;;;;;;;1.60;1.50;;;;;;;-145.94;49.33;76229.41;5114640;28;20170;-68
2023/06/30 09:14:41;;;;;;;2.70;1.57;;;;;;;-145.94;49.71;76225.34;5114256;28;20218;-68
2023/06/30 09:17:08;;;;;;;3.40;1.43;;;;;;;-145.94;48.52;76225.34;5114013;28;20185;-68
2023/06/30 09:19:35;;;;;;;1.60;1.50;;;;;;;-145.94;49.28;76211.06;5113966;28;20199;-68
2023/06/30 09:22:04;;;;;;;5.27;1.67;;;;;;;-145.94;49.25;76194.75;5114077;28;20205;-68
2023/06/30 09:24:51;;;;;;;1.13;1.10;;;;;;;-145.94;49.50;76180.47;5114116;28;20663;-68
2023/06/30 09:27:18;;;;;;;1.70;1.60;;;;;;;-145.94;49.66;76178.44;5114130;28;20192;-68
2023/06/30 09:29:55;;;;;;;2.30;1.30;;;;;;;-145.94;49.11;76174.38;5113631;28;20682;-68
2023/06/30 09:32:32;;;;;;;4.20;1.60;;;;;;;-145.94;47.42;76180.47;5113523;28;20184;-68
2023/06/30 09:35:05;;;;;;;1.73;1.60;;;;;;;-145.94;48.95;76158.06;5114172;28;20188;-68
2023/06/30 09:37:42;;;;;;;1.70;1.60;;;;;;;-145.94;47.95;76164.16;5113812;28;20183;-68
2023/06/30 09:40:14;;;;;;;2.27;2.27;;;;;;;-145.94;48.87;76168.25;5113619;28;20204;-68
2023/06/30 09:42:43;;;;;;;4.43;1.53;;;;;;;-145.94;46.86;76147.84;5113979;28;20226;-68
2023/06/30 09:45:13;;;;;;;2.17;2.00;;;;;;;-145.94;46.18;76131.56;5113978;28;20580;-68
2023/06/30 09:47:39;;;;;;;1.77;1.53;;;;;;;-145.94;47.08;76117.28;5113880;28;20539;-68
2023/06/30 09:50:06;;;;;;;1.60;1.50;;;;;;;-145.94;46.71;76113.19;5113560;28;20284;-68
2023/06/30 09:52:34;;;;;;;4.40;1.57;;;;;;;-145.94;46.70;76105.03;5113799;28;20612;-68
2023/06/30 09:55:10;;;;;;;1.47;1.47;;;;;;;-145.94;46.52;76090.78;5114122;28;20195;-68
2023/06/30 09:57:37;;;;;;;1.40;1.40;;;;;;;-145.94;46.44;76076.50;5114030;28;20190;-68
2023/06/30 10:00:07;;;;;;;1.30;1.20;;;;;;;-145.94;46.67;76060.19;5114129;28;20205;-69
2023/06/30 10:03:04;;;;;;;1.10;1.10;;;;;;;-145.94;45.86;76047.97;5113745;28;20197;-68
2023/06/30 10:05:31;;;;;;;1.30;1.30;;;;;;;-145.94;45.67;76050.00;5114032;28;20230;-68
2023/06/30 10:08:00;;;;;;;1.37;1.37;;;;;;;-145.94;45.51;76062.22;5113721;28;20189;-68
2023/06/30 10:10:28;;;;;;;1.40;1.30;;;;;;;-145.94;44.18;76070.38;5113592;28;20278;-68
2023/06/30 10:12:56;;;;;;;2.30;1.33;;;;;;;-145.94;44.79;76080.56;5113911;28;20698;-68
2023/06/30 10:15:23;;;;;;;1.20;1.20;;;;;;;-145.94;44.25;76070.38;5113453;28;20181;-68
2023/06/30 10:17:49;;;;;;;1.30;1.30;;;;;;;-145.94;45.51;76056.13;5113381;28;20185;-68
2023/06/30 10:20:17;;;;;;;1.10;1.10;;;;;;;-145.94;45.42;76052.03;5113251;28;20209;-68
2023/06/30 10:22:45;;;;;;;1.73;1.47;;;;;;;-145.94;45.96;76052.03;5113327;28;20285;-68
2023/06/30 10:25:15;;;;;;;1.40;1.40;;;;;;;-145.94;46.41;76054.06;5113320;28;20185;-68
2023/06/30 10:27:44;;;;;;;1.53;1.53;;;;;;;-145.94;45.80;76072.44;5113511;28;20177;-68
2023/06/30 10:30:12;;;;;;;1.50;1.50;;;;;;;-145.94;46.81;76078.53;5113209;28;20217;-69
2023/06/30 10:32:39;;;;;;;1.60;1.27;;;;;;;-145.94;46.79;76078.53;5113156;28;20189;-68
2023/06/30 10:35:08;;;;;;;8.43;1.30;;;;;;;-145.94;47.08;76074.47;5113384;28;20193;-68
2023/06/30 10:37:35;;;;;;;1.33;1.33;;;;;;;-145.94;44.95;76078.53;5113474;28;20656;-69
2023/06/30 10:40:22;;;;;;;1.13;1.10;;;;;;;-145.94;44.80;76072.44;5113120;28;20186;-69
2023/06/30 10:42:52;;;;;;;1.53;1.53;;;;;;;-145.94;43.60;76054.06;5113448;28;20535;-68
2023/06/30 10:45:20;;;;;;;1.30;1.30;;;;;;;-145.94;43.60;76058.16;5113673;28;20177;-68
2023/06/30 10:47:52;;;;;;;1.10;1.10;;;;;;;-145.94;45.43;76047.97;5113603;28;20189;-68
2023/06/30 10:50:19;;;;;;;4.17;1.30;;;;;;;-145.94;44.63;76027.56;5116964;28;20566;-68
2023/06/30 10:52:50;;;;;;;1.53;1.30;;;;;;;-145.94;44.14;76007.19;5116913;28;20185;-69
2023/06/30 10:55:20;;;;;;;2.10;2.07;;;;;;;-145.94;43.78;75999.03;5116662;28;20181;-69
2023/06/30 10:57:52;;;;;;;1.37;1.37;;;;;;;-145.94;43.54;75994.94;5116682;28;20234;-68
2023/06/30 11:00:21;;;;;;;2.73;1.40;;;;;;;-145.94;46.48;75972.53;5116714;28;20212;-68
2023/06/30 11:02:53;;;;;;;1.40;1.40;;;;;;;-145.94;43.23;75960.28;5116791;28;20247;-68
2023/06/30 11:05:26;;;;;;;1.67;1.67;;;;;;;-145.94;42.97;75950.09;5116817;28;20180;-68
2023/06/30 11:08:02;;;;;;;1.60;1.50;;;;;;;-145.94;43.33;75950.09;5117058;28;20174;-68
2023/06/30 11:10:31;;;;;;;1.67;1.57;;;;;;;-145.94;44.65;75935.81;5116321;28;20204;-68
2023/06/30 11:12:59;;;;;;;1.67;1.67;;;;;;;-145.94;45.49;75931.75;5116312;28;20193;-68
2023/06/30 11:15:29;;;;;;;2.43;1.43;;;;;;;-145.94;43.64;75935.81;5116488;28;20189;-68
2023/06/30 11:17:55;;;;;;;1.33;1.33;;;;;;;-145.94;42.81;75937.88;5116505;28;20185;-68
2023/06/30 11:20:29;;;;;;;2.70;1.60;;;;;;;-145.94;41.96;75948.06;5116420;28;20219;-68